Time;durP1;ratioP1;P1;durP2;ratioP2;P2;SDS_P1;SDS_P2;PMS_P1;PMS_P2;Temp;Humidity;BMP_temperature;BMP_pressure;BME280_temperature;BME280_humidity;BME280_pressure;Samples;Min_cycle;Max_cycle;Signal;HPM_P1;HPM_P2
2021/06/26 00:00:59;;;;;;;11.10;3.17;;;;;;;;;;5013017;28;20422;-63
2021/06/26 00:03:26;;;;;;;14.45;2.53;;;;;;;;;;5012935;28;20108;-60
2021/06/26 00:05:53;;;;;;;12.70;2.90;;;;;;;;;;5011863;28;20057;-62
2021/06/26 00:08:20;;;;;;;16.20;3.50;;;;;;;;;;5013188;28;20019;-62
2021/06/26 00:10:47;;;;;;;20.63;2.72;;;;;;;;;;5013368;28;20026;-63
2021/06/26 00:13:14;;;;;;;11.77;2.35;;;;;;;;;;5013430;28;20479;-63
2021/06/26 00:15:40;;;;;;;12.85;2.70;;;;;;;;;;5011823;28;20026;-62
2021/06/26 00:18:07;;;;;;;15.80;3.10;;;;;;;;;;5013240;28;20061;-62
2021/06/26 00:20:33;;;;;;;11.60;2.95;;;;;;;;;;5013100;28;20033;-63
2021/06/26 00:23:00;;;;;;;12.48;2.35;;;;;;;;;;5011451;28;20112;-63
2021/06/26 00:25:26;;;;;;;19.25;2.90;;;;;;;;;;5013023;28;20352;-62
2021/06/26 00:27:53;;;;;;;15.27;2.67;;;;;;;;;;5012260;28;20080;-63
2021/06/26 00:30:20;;;;;;;19.23;3.30;;;;;;;;;;5016795;28;20018;-62
2021/06/26 00:32:46;;;;;;;14.48;3.22;;;;;;;;;;5015297;28;20085;-62
2021/06/26 00:35:13;;;;;;;18.80;2.83;;;;;;;;;;5016258;28;20050;-63
2021/06/26 00:37:39;;;;;;;20.52;2.80;;;;;;;;;;5016655;28;20105;-63
2021/06/26 00:40:06;;;;;;;18.88;2.88;;;;;;;;;;5016655;28;20018;-62
2021/06/26 00:42:37;;;;;;;13.32;2.80;;;;;;;;;;5015250;28;20453;-63
2021/06/26 00:45:13;;;;;;;12.00;3.20;;;;;;;;;;5016526;28;20510;-62
2021/06/26 00:47:39;;;;;;;9.68;2.88;;;;;;;;;;5016508;28;20107;-63
2021/06/26 00:50:12;;;;;;;14.85;2.35;;;;;;;;;;5016446;28;20045;-62
2021/06/26 00:52:38;;;;;;;16.05;3.10;;;;;;;;;;5016135;28;20157;-62
2021/06/26 00:55:05;;;;;;;23.70;3.67;;;;;;;;;;5016336;28;20544;-62
2021/06/26 00:57:33;;;;;;;12.43;3.70;;;;;;;;;;5016352;28;20145;-62
2021/06/26 01:00:01;;;;;;;15.05;2.90;;;;;;;;;;5014688;28;20029;-61
2021/06/26 01:02:27;;;;;;;10.27;2.90;;;;;;;;;;5016206;28;20045;-62
2021/06/26 01:04:53;;;;;;;10.55;2.85;;;;;;;;;;5014869;28;20422;-62
2021/06/26 01:07:19;;;;;;;20.60;3.33;;;;;;;;;;5016469;28;20037;-62
2021/06/26 01:09:46;;;;;;;17.02;4.47;;;;;;;;;;5016048;28;20025;-62
2021/06/26 01:12:12;;;;;;;20.73;3.95;;;;;;;;;;5014665;28;20037;-63
2021/06/26 01:14:40;;;;;;;17.92;3.92;;;;;;;;;;5015971;28;20038;-62
2021/06/26 01:17:07;;;;;;;28.60;4.07;;;;;;;;;;5014587;28;20030;-62
2021/06/26 01:19:34;;;;;;;24.50;3.38;;;;;;;;;;5015918;28;20022;-62
2021/06/26 01:22:02;;;;;;;23.88;4.43;;;;;;;;;;5015824;28;20045;-62
2021/06/26 01:24:29;;;;;;;24.45;4.43;;;;;;;;;;5015760;28;20022;-62
2021/06/26 01:26:57;;;;;;;16.35;3.58;;;;;;;;;;5015771;28;20030;-62
2021/06/26 01:29:23;;;;;;;10.93;3.95;;;;;;;;;;5015686;28;20117;-62
2021/06/26 01:31:50;;;;;;;17.20;3.28;;;;;;;;;;5015583;28;20041;-62
2021/06/26 01:34:16;;;;;;;21.13;3.90;;;;;;;;;;5013973;28;20054;-63
2021/06/26 01:36:42;;;;;;;23.02;3.60;;;;;;;;;;5014371;28;20025;-63
2021/06/26 01:39:09;;;;;;;19.60;3.45;;;;;;;;;;5015228;28;20105;-63
2021/06/26 01:41:36;;;;;;;19.02;4.22;;;;;;;;;;5014978;28;20058;-62
2021/06/26 01:44:03;;;;;;;28.13;4.28;;;;;;;;;;5015373;28;20018;-62
2021/06/26 01:46:29;;;;;;;20.35;4.43;;;;;;;;;;5015358;28;20451;-62
2021/06/26 01:49:09;;;;;;;21.50;4.28;;;;;;;;;;5014050;28;20034;-63
2021/06/26 01:51:36;;;;;;;15.57;4.20;;;;;;;;;;5013954;28;20030;-63
2021/06/26 01:54:03;;;;;;;18.70;5.20;;;;;;;;;;5015226;28;20065;-64
2021/06/26 01:56:29;;;;;;;20.98;5.47;;;;;;;;;;5015177;28;20022;-63
2021/06/26 01:58:56;;;;;;;25.42;5.82;;;;;;;;;;5013862;28;20026;-63
2021/06/26 02:01:22;;;;;;;21.15;5.05;;;;;;;;;;5015035;28;20034;-63
2021/06/26 02:03:48;;;;;;;16.10;4.18;;;;;;;;;;5015078;28;20128;-63
2021/06/26 02:06:14;;;;;;;25.40;4.47;;;;;;;;;;5013732;28;20030;-62
2021/06/26 02:08:41;;;;;;;11.63;4.10;;;;;;;;;;5015086;28;20156;-62
2021/06/26 02:11:07;;;;;;;14.95;3.08;;;;;;;;;;5015098;28;20032;-63
2021/06/26 02:13:33;;;;;;;11.50;3.40;;;;;;;;;;5014919;28;20036;-64
2021/06/26 02:16:00;;;;;;;20.55;4.30;;;;;;;;;;5014584;28;20469;-62
2021/06/26 02:18:26;;;;;;;12.68;4.00;;;;;;;;;;5014885;28;20030;-63
2021/06/26 02:20:52;;;;;;;16.27;4.15;;;;;;;;;;5013474;28;20045;-63
2021/06/26 02:23:18;;;;;;;14.85;4.10;;;;;;;;;;5014733;28;20092;-63
2021/06/26 02:25:45;;;;;;;25.67;4.95;;;;;;;;;;5014645;28;20104;-63
2021/06/26 02:28:11;;;;;;;26.65;5.03;;;;;;;;;;5014628;28;20110;-62
2021/06/26 02:30:37;;;;;;;17.55;5.38;;;;;;;;;;5014767;28;20112;-63
2021/06/26 02:33:04;;;;;;;18.98;4.93;;;;;;;;;;5014233;28;20382;-64
2021/06/26 02:35:30;;;;;;;12.88;4.60;;;;;;;;;;5014393;28;20547;-64
2021/06/26 02:37:57;;;;;;;21.25;4.57;;;;;;;;;;5014502;28;20034;-63
2021/06/26 02:40:23;;;;;;;15.10;4.30;;;;;;;;;;5014083;28;20402;-62
2021/06/26 02:42:49;;;;;;;12.98;3.90;;;;;;;;;;5014400;28;20026;-62
2021/06/26 02:45:16;;;;;;;20.65;4.57;;;;;;;;;;5012960;28;20125;-63
2021/06/26 02:47:42;;;;;;;18.23;3.58;;;;;;;;;;5014580;28;20109;-63
2021/06/26 02:50:09;;;;;;;22.23;4.38;;;;;;;;;;5014204;28;20026;-63
2021/06/26 02:52:36;;;;;;;22.08;4.50;;;;;;;;;;5013815;28;20109;-62
2021/06/26 02:55:02;;;;;;;25.55;4.97;;;;;;;;;;5014097;28;20370;-62
2021/06/26 02:57:28;;;;;;;27.63;4.82;;;;;;;;;;5014166;28;20030;-62
2021/06/26 02:59:56;;;;;;;18.45;4.10;;;;;;;;;;5014318;28;20367;-63
2021/06/26 03:02:22;;;;;;;21.27;4.93;;;;;;;;;;5013999;28;20061;-63
2021/06/26 03:04:48;;;;;;;23.52;4.43;;;;;;;;;;5014198;28;20056;-62
2021/06/26 03:07:14;;;;;;;16.35;5.18;;;;;;;;;;5014191;28;20105;-63
2021/06/26 03:09:40;;;;;;;19.63;4.95;;;;;;;;;;5013903;28;20441;-63
2021/06/26 03:12:07;;;;;;;23.25;4.90;;;;;;;;;;5012514;28;20105;-63
2021/06/26 03:14:33;;;;;;;23.58;5.50;;;;;;;;;;5013804;28;20493;-63
2021/06/26 03:16:59;;;;;;;31.63;5.30;;;;;;;;;;5012456;28;20034;-63
2021/06/26 03:19:26;;;;;;;23.67;5.82;;;;;;;;;;5013876;28;20109;-63
2021/06/26 03:21:52;;;;;;;24.63;5.78;;;;;;;;;;5013656;28;20033;-64
2021/06/26 03:24:18;;;;;;;19.00;7.15;;;;;;;;;;5013667;28;20058;-62
2021/06/26 03:26:44;;;;;;;28.10;8.18;;;;;;;;;;5013618;28;20558;-62
2021/06/26 03:29:10;;;;;;;25.20;7.50;;;;;;;;;;5013404;28;20026;-62
2021/06/26 03:31:37;;;;;;;24.55;5.93;;;;;;;;;;5013468;28;20034;-62
2021/06/26 03:34:03;;;;;;;20.98;6.10;;;;;;;;;;5013252;28;20108;-62
2021/06/26 03:36:30;;;;;;;14.93;5.70;;;;;;;;;;5013584;28;20042;-62
2021/06/26 03:39:00;;;;;;;25.85;7.30;;;;;;;;;;5013542;28;20044;-63
2021/06/26 03:41:26;;;;;;;24.35;6.25;;;;;;;;;;5013522;28;20022;-63
2021/06/26 03:43:55;;;;;;;12.93;5.38;;;;;;;;;;5013374;28;20029;-62
2021/06/26 03:46:21;;;;;;;26.73;5.28;;;;;;;;;;5013378;28;20037;-63
2021/06/26 03:48:48;;;;;;;18.25;4.72;;;;;;;;;;5013376;28;20075;-63
2021/06/26 03:51:14;;;;;;;17.23;5.05;;;;;;;;;;5011998;28;20034;-64
2021/06/26 03:53:40;;;;;;;23.35;5.18;;;;;;;;;;5013272;28;20096;-62
2021/06/26 03:56:06;;;;;;;18.88;5.03;;;;;;;;;;5011977;28;20467;-62
2021/06/26 03:58:33;;;;;;;21.83;5.45;;;;;;;;;;5012051;28;20120;-63
2021/06/26 04:00:59;;;;;;;17.65;4.80;;;;;;;;;;5013240;28;20033;-62
2021/06/26 04:03:25;;;;;;;18.75;5.38;;;;;;;;;;5014634;28;20528;-62
2021/06/26 04:05:51;;;;;;;19.85;5.25;;;;;;;;;;5015679;28;20030;-63
2021/06/26 04:08:18;;;;;;;19.58;5.30;;;;;;;;;;5017244;28;20053;-62
2021/06/26 04:10:44;;;;;;;20.63;5.95;;;;;;;;;;5017085;28;20030;-64
2021/06/26 04:13:11;;;;;;;19.35;5.10;;;;;;;;;;5017400;28;20026;-63
2021/06/26 04:15:37;;;;;;;16.27;4.88;;;;;;;;;;5017048;28;20022;-63
2021/06/26 04:18:03;;;;;;;25.15;5.68;;;;;;;;;;5017100;28;20030;-63
2021/06/26 04:20:30;;;;;;;18.80;6.60;;;;;;;;;;5015669;28;20033;-64
2021/06/26 04:22:56;;;;;;;19.30;5.00;;;;;;;;;;5016961;28;20029;-63
2021/06/26 04:25:22;;;;;;;21.52;4.60;;;;;;;;;;5016851;28;20026;-63
2021/06/26 04:27:48;;;;;;;24.15;5.28;;;;;;;;;;5015529;28;20022;-64
2021/06/26 04:30:16;;;;;;;24.73;5.40;;;;;;;;;;5016792;28;20026;-63
2021/06/26 04:32:42;;;;;;;21.50;4.70;;;;;;;;;;5016700;28;20072;-63
2021/06/26 04:35:09;;;;;;;15.98;4.90;;;;;;;;;;5016619;28;20058;-63
2021/06/26 04:37:36;;;;;;;21.08;5.07;;;;;;;;;;5015374;28;20022;-63
2021/06/26 04:40:03;;;;;;;15.05;4.47;;;;;;;;;;5016665;28;20064;-63
2021/06/26 04:42:30;;;;;;;22.13;6.03;;;;;;;;;;5016382;28;20083;-63
2021/06/26 04:44:57;;;;;;;17.15;6.13;;;;;;;;;;5016523;28;20462;-63
2021/06/26 04:47:23;;;;;;;17.33;4.80;;;;;;;;;;5016508;28;20417;-63
2021/06/26 04:49:50;;;;;;;15.50;4.60;;;;;;;;;;5016515;28;20022;-63
2021/06/26 04:52:16;;;;;;;21.35;4.20;;;;;;;;;;5016315;28;20038;-64
2021/06/26 04:54:42;;;;;;;16.27;5.78;;;;;;;;;;5016359;28;20026;-63
2021/06/26 04:57:09;;;;;;;15.18;4.82;;;;;;;;;;5015981;28;20462;-63
2021/06/26 04:59:35;;;;;;;20.10;6.07;;;;;;;;;;5016244;28;20080;-63
2021/06/26 05:02:01;;;;;;;18.92;5.28;;;;;;;;;;5016167;28;20040;-63
2021/06/26 05:04:27;;;;;;;15.73;5.25;;;;;;;;;;5015952;28;20439;-63
2021/06/26 05:06:56;;;;;;;19.70;5.60;;;;;;;;;;5014810;28;20172;-64
2021/06/26 05:09:22;;;;;;;15.77;5.20;;;;;;;;;;5015978;28;20022;-64
2021/06/26 05:11:48;;;;;;;17.65;5.28;;;;;;;;;;5015629;28;20379;-63
2021/06/26 05:14:14;;;;;;;16.73;4.90;;;;;;;;;;5015786;28;20045;-64
2021/06/26 05:16:43;;;;;;;17.02;4.55;;;;;;;;;;5016229;28;20121;-64
2021/06/26 05:19:10;;;;;;;25.38;4.60;;;;;;;;;;5014692;28;20132;-63
2021/06/26 05:21:37;;;;;;;15.48;4.95;;;;;;;;;;5014244;28;20073;-65
2021/06/26 05:24:04;;;;;;;17.52;4.57;;;;;;;;;;5016074;28;20113;-64
2021/06/26 05:26:31;;;;;;;12.80;4.10;;;;;;;;;;5015830;28;20052;-64
2021/06/26 05:28:57;;;;;;;14.43;3.72;;;;;;;;;;5014511;28;20351;-63
2021/06/26 05:31:23;;;;;;;17.98;3.83;;;;;;;;;;5015567;28;20025;-66
2021/06/26 05:33:49;;;;;;;14.40;3.80;;;;;;;;;;5015380;28;20471;-65
2021/06/26 05:36:16;;;;;;;10.27;3.25;;;;;;;;;;5015129;28;20042;-64
2021/06/26 05:38:42;;;;;;;14.88;4.18;;;;;;;;;;5015547;28;20036;-64
2021/06/26 05:41:08;;;;;;;10.88;3.30;;;;;;;;;;5012038;28;20529;-64
2021/06/26 05:43:35;;;;;;;14.43;3.88;;;;;;;;;;5015522;28;20096;-64
2021/06/26 05:46:01;;;;;;;14.32;4.05;;;;;;;;;;5014042;28;20030;-63
2021/06/26 05:48:28;;;;;;;12.95;4.10;;;;;;;;;;5014672;28;20109;-64
2021/06/26 05:50:54;;;;;;;13.00;3.33;;;;;;;;;;5012370;28;20049;-62
2021/06/26 05:53:20;;;;;;;8.63;3.28;;;;;;;;;;5014547;28;20112;-65
2021/06/26 05:55:57;;;;;;;12.40;4.10;;;;;;;;;;5015285;28;20123;-64
2021/06/26 05:58:27;;;;;;;13.35;3.40;;;;;;;;;;5015162;28;20053;-62
2021/06/26 06:00:53;;;;;;;14.02;3.08;;;;;;;;;;5014722;28;20379;-62
2021/06/26 06:03:19;;;;;;;9.18;3.60;;;;;;;;;;5013793;28;20033;-61
2021/06/26 06:05:47;;;;;;;13.70;3.33;;;;;;;;;;5015040;28;20028;-62
2021/06/26 06:08:14;;;;;;;15.70;3.83;;;;;;;;;;5013366;28;20022;-62
2021/06/26 06:10:40;;;;;;;15.13;3.20;;;;;;;;;;5015040;28;20102;-61
2021/06/26 06:13:17;;;;;;;13.07;3.13;;;;;;;;;;5013556;28;20367;-62
2021/06/26 06:15:43;;;;;;;13.07;3.63;;;;;;;;;;5014572;28;20826;-62
2021/06/26 06:18:10;;;;;;;12.73;3.45;;;;;;;;;;5014786;28;20099;-64
2021/06/26 06:20:37;;;;;;;10.50;3.42;;;;;;;;;;5014908;28;20470;-65
2021/06/26 06:23:03;;;;;;;12.50;3.70;;;;;;;;;;5014722;28;20029;-61
2021/06/26 06:25:30;;;;;;;8.38;2.95;;;;;;;;;;5012924;28;20135;-62
2021/06/26 06:27:56;;;;;;;15.95;4.20;;;;;;;;;;5013237;28;20018;-67
2021/06/26 06:30:22;;;;;;;12.52;3.20;;;;;;;;;;5014545;28;20036;-66
2021/06/26 06:32:48;;;;;;;9.10;3.70;;;;;;;;;;5014463;28;20030;-63
2021/06/26 06:35:15;;;;;;;13.60;4.05;;;;;;;;;;5014091;28;20046;-66
2021/06/26 06:37:41;;;;;;;7.25;2.85;;;;;;;;;;5014473;28;20105;-65
2021/06/26 06:40:11;;;;;;;9.07;3.50;;;;;;;;;;5013167;28;20061;-65
2021/06/26 06:42:38;;;;;;;10.32;3.35;;;;;;;;;;5014370;28;20026;-65
2021/06/26 06:45:04;;;;;;;28.92;3.88;;;;;;;;;;5014328;28;20029;-66
2021/06/26 06:47:31;;;;;;;12.48;3.17;;;;;;;;;;5014250;28;20063;-64
2021/06/26 06:49:57;;;;;;;13.63;3.75;;;;;;;;;;5013001;28;20029;-65
2021/06/26 06:52:24;;;;;;;11.45;3.10;;;;;;;;;;5014161;28;20041;-65
2021/06/26 06:54:50;;;;;;;12.55;3.28;;;;;;;;;;5013099;28;20356;-65
2021/06/26 06:57:22;;;;;;;16.65;3.83;;;;;;;;;;5012538;28;20120;-66
2021/06/26 06:59:49;;;;;;;13.13;3.28;;;;;;;;;;5014125;28;20490;-63
2021/06/26 07:02:15;;;;;;;14.95;4.18;;;;;;;;;;5013992;28;20030;-65
2021/06/26 07:04:41;;;;;;;8.18;3.10;;;;;;;;;;5013989;28;20026;-66
2021/06/26 07:07:08;;;;;;;10.18;2.97;;;;;;;;;;5012696;28;20458;-66
2021/06/26 07:09:34;;;;;;;9.45;3.20;;;;;;;;;;5012591;28;20069;-67
2021/06/26 07:12:00;;;;;;;7.88;3.08;;;;;;;;;;5013732;28;20034;-65
2021/06/26 07:14:27;;;;;;;15.30;3.33;;;;;;;;;;5013825;28;20083;-65
2021/06/26 07:16:53;;;;;;;8.80;2.85;;;;;;;;;;5013787;28;20052;-65
2021/06/26 07:19:20;;;;;;;11.68;2.95;;;;;;;;;;5013588;28;20022;-66
2021/06/26 07:21:46;;;;;;;8.27;2.92;;;;;;;;;;5013646;28;20076;-65
2021/06/26 07:24:15;;;;;;;13.75;3.25;;;;;;;;;;5013646;28;20057;-64
2021/06/26 07:26:42;;;;;;;16.30;4.40;;;;;;;;;;5013560;28;20075;-66
2021/06/26 07:29:08;;;;;;;12.40;3.75;;;;;;;;;;5013569;28;20026;-65
2021/06/26 07:31:35;;;;;;;8.40;2.95;;;;;;;;;;5012174;28;20537;-68
2021/06/26 07:37:05;;;;;;;5.60;3.00;;;;;;;;;;5012985;28;20057;-68
2021/06/26 07:39:31;;;;;;;12.48;4.00;;;;;;;;;;5012784;28;20526;-68
2021/06/26 07:41:57;;;;;;;10.88;2.65;;;;;;;;;;5013156;28;20457;-65
2021/06/26 07:44:24;;;;;;;10.95;3.10;;;;;;;;;;5013425;28;20474;-65
2021/06/26 07:46:51;;;;;;;12.07;3.83;;;;;;;;;;5013334;28;20061;-67
2021/06/26 07:49:18;;;;;;;13.18;3.88;;;;;;;;;;5013000;28;20455;-65
2021/06/26 07:51:44;;;;;;;16.30;5.78;;;;;;;;;;5011992;28;20033;-70
2021/06/26 07:54:10;;;;;;;15.48;5.20;;;;;;;;;;5011969;28;20064;-66
2021/06/26 07:56:36;;;;;;;16.25;5.57;;;;;;;;;;5013255;28;20518;-66
2021/06/26 07:59:03;;;;;;;17.10;4.55;;;;;;;;;;5013201;28;20061;-67
2021/06/26 08:01:29;;;;;;;17.73;5.72;;;;;;;;;;5013590;28;20414;-66
2021/06/26 08:03:56;;;;;;;17.23;4.35;;;;;;;;;;5011750;28;20053;-67
2021/06/26 08:06:22;;;;;;;14.07;5.28;;;;;;;;;;5011924;28;20403;-67
2021/06/26 08:08:48;;;;;;;15.18;4.20;;;;;;;;;;5012880;28;20104;-66
2021/06/26 08:11:15;;;;;;;11.00;3.60;;;;;;;;;;5011510;28;20072;-64
2021/06/26 08:13:41;;;;;;;12.40;3.47;;;;;;;;;;5012906;28;20022;-66
2021/06/26 08:16:07;;;;;;;16.73;3.83;;;;;;;;;;5012952;28;20037;-64
2021/06/26 08:18:34;;;;;;;6.07;3.55;;;;;;;;;;5012519;28;20022;-65
2021/06/26 08:21:00;;;;;;;11.13;3.50;;;;;;;;;;5011559;28;20029;-65
2021/06/26 08:23:26;;;;;;;10.43;3.53;;;;;;;;;;5012772;28;20050;-66
2021/06/26 08:25:52;;;;;;;11.65;4.22;;;;;;;;;;5011698;28;20034;-67
2021/06/26 08:28:19;;;;;;;7.88;3.28;;;;;;;;;;5012593;28;20018;-64
2021/06/26 08:30:45;;;;;;;11.88;3.67;;;;;;;;;;5012982;28;20532;-64
2021/06/26 08:33:11;;;;;;;9.90;3.25;;;;;;;;;;5012777;28;20034;-65
2021/06/26 08:35:37;;;;;;;11.45;3.85;;;;;;;;;;5012882;28;20076;-66
2021/06/26 08:38:04;;;;;;;17.40;3.70;;;;;;;;;;5011586;28;20040;-67
2021/06/26 08:40:30;;;;;;;13.20;4.32;;;;;;;;;;5012683;28;20103;-65
2021/06/26 08:42:56;;;;;;;13.32;3.30;;;;;;;;;;5012760;28;20057;-65
2021/06/26 08:45:23;;;;;;;8.65;3.60;;;;;;;;;;5012830;28;20441;-65
2021/06/26 08:47:50;;;;;;;13.70;3.67;;;;;;;;;;5012681;28;20022;-66
2021/06/26 08:50:17;;;;;;;16.67;3.30;;;;;;;;;;5014081;28;20077;-65
2021/06/26 08:52:44;;;;;;;14.63;3.85;;;;;;;;;;5016272;28;20041;-66
2021/06/26 08:55:10;;;;;;;12.90;3.72;;;;;;;;;;5016270;28;20022;-69
2021/06/26 08:57:37;;;;;;;11.55;3.25;;;;;;;;;;5012976;28;20025;-67
2021/06/26 09:00:07;;;;;;;13.48;3.28;;;;;;;;;;5016086;28;20022;-67
2021/06/26 09:02:33;;;;;;;6.25;3.35;;;;;;;;;;5014506;28;20116;-67
2021/06/26 09:05:02;;;;;;;11.98;3.92;;;;;;;;;;5016168;28;20029;-67
2021/06/26 09:07:28;;;;;;;6.88;2.78;;;;;;;;;;5016157;28;20029;-68
2021/06/26 09:09:56;;;;;;;14.73;3.00;;;;;;;;;;5015764;28;20037;-67
2021/06/26 09:12:23;;;;;;;7.90;3.50;;;;;;;;;;5015933;28;20041;-67
2021/06/26 09:14:49;;;;;;;11.48;2.70;;;;;;;;;;5014683;28;20018;-67
2021/06/26 09:17:18;;;;;;;6.18;3.20;;;;;;;;;;5015958;28;20022;-65
2021/06/26 09:19:55;;;;;;;7.60;3.13;;;;;;;;;;5015357;28;20097;-67
2021/06/26 09:22:21;;;;;;;6.03;3.17;;;;;;;;;;5015759;28;20041;-68
2021/06/26 09:24:50;;;;;;;12.63;3.65;;;;;;;;;;5015874;28;20036;-68
2021/06/26 09:27:18;;;;;;;64.10;7.72;;;;;;;;;;5015797;28;20125;-65
2021/06/26 09:29:51;;;;;;;7.60;2.80;;;;;;;;;;5015714;28;20053;-66
2021/06/26 09:32:24;;;;;;;10.75;3.15;;;;;;;;;;5015737;28;20030;-68
2021/06/26 09:34:51;;;;;;;13.30;3.63;;;;;;;;;;5015543;28;20398;-66
2021/06/26 09:37:21;;;;;;;14.27;3.08;;;;;;;;;;5014254;28;20088;-69
2021/06/26 09:39:48;;;;;;;6.70;2.95;;;;;;;;;;5015045;28;20049;-69
2021/06/26 09:42:18;;;;;;;6.45;2.72;;;;;;;;;;5015589;28;20022;-65
2021/06/26 09:44:55;;;;;;;8.70;2.60;;;;;;;;;;5015392;28;20137;-66
2021/06/26 09:47:25;;;;;;;8.43;2.92;;;;;;;;;;5015473;28;20347;-69
2021/06/26 09:49:52;;;;;;;13.57;2.67;;;;;;;;;;5015225;28;20029;-68
2021/06/26 09:52:18;;;;;;;16.52;2.88;;;;;;;;;;5015293;28;20116;-67
2021/06/26 09:54:44;;;;;;;8.00;2.55;;;;;;;;;;5013934;28;20061;-69
2021/06/26 09:57:10;;;;;;;5.70;2.67;;;;;;;;;;5014871;28;20117;-68
2021/06/26 09:59:36;;;;;;;10.95;2.92;;;;;;;;;;5013813;28;20554;-70
2021/06/26 10:02:03;;;;;;;7.47;2.35;;;;;;;;;;5014141;28;20041;-66
2021/06/26 10:04:29;;;;;;;6.40;2.72;;;;;;;;;;5014949;28;20021;-68
2021/06/26 10:06:57;;;;;;;5.78;2.72;;;;;;;;;;5013649;28;20021;-70
2021/06/26 10:09:23;;;;;;;12.27;3.00;;;;;;;;;;5013594;28;20057;-67
2021/06/26 10:11:49;;;;;;;11.38;2.97;;;;;;;;;;5013566;28;20111;-70
2021/06/26 10:14:16;;;;;;;6.03;2.47;;;;;;;;;;5014822;28;20026;-70
2021/06/26 10:16:43;;;;;;;12.30;2.78;;;;;;;;;;5013338;28;20025;-67
2021/06/26 10:19:10;;;;;;;6.97;2.60;;;;;;;;;;5013592;28;20056;-69
2021/06/26 10:21:36;;;;;;;5.95;2.80;;;;;;;;;;5012732;28;20038;-70
2021/06/26 10:24:04;;;;;;;7.28;2.85;;;;;;;;;;5013406;28;20119;-68
2021/06/26 10:26:35;;;;;;;6.07;2.92;;;;;;;;;;5014979;28;20100;-64
2021/06/26 10:29:02;;;;;;;9.52;3.13;;;;;;;;;;5014358;28;20398;-64
2021/06/26 10:31:32;;;;;;;19.67;3.28;;;;;;;;;;5014238;28;20030;-66
2021/06/26 10:34:15;;;;;;;8.73;2.88;;;;;;;;;;5013797;28;20018;-67
2021/06/26 10:36:51;;;;;;;6.38;2.72;;;;;;;;;;5014400;28;20058;-65
2021/06/26 10:39:18;;;;;;;11.10;2.30;;;;;;;;;;5012742;28;20026;-65
2021/06/26 10:41:55;;;;;;;5.82;2.00;;;;;;;;;;5014411;28;20029;-65
2021/06/26 10:44:21;;;;;;;5.70;2.60;;;;;;;;;;5013089;28;20108;-66
2021/06/26 10:46:48;;;;;;;8.77;2.88;;;;;;;;;;5014008;28;20033;-64
2021/06/26 10:49:14;;;;;;;4.15;2.13;;;;;;;;;;5013990;28;20026;-64
2021/06/26 10:51:42;;;;;;;10.98;2.88;;;;;;;;;;5012759;28;20128;-65
2021/06/26 10:54:12;;;;;;;5.22;2.50;;;;;;;;;;5014195;28;20026;-65
2021/06/26 10:56:39;;;;;;;8.70;2.80;;;;;;;;;;5012798;28;20387;-65
2021/06/26 10:59:09;;;;;;;9.65;2.20;;;;;;;;;;5014046;28;20022;-62
2021/06/26 11:01:35;;;;;;;8.37;2.73;;;;;;;;;;5012102;28;20022;-65
2021/06/26 11:04:11;;;;;;;6.80;2.50;;;;;;;;;;5013445;28;20279;-66
2021/06/26 11:06:39;;;;;;;5.38;2.38;;;;;;;;;;5011881;28;20022;-65
2021/06/26 11:09:09;;;;;;;2.50;2.08;;;;;;;;;;5013787;28;20022;-64
2021/06/26 11:11:39;;;;;;;12.80;2.90;;;;;;;;;;5013614;28;20117;-68
2021/06/26 11:14:05;;;;;;;5.80;2.65;;;;;;;;;;5013759;28;20521;-66
2021/06/26 11:16:32;;;;;;;5.07;2.70;;;;;;;;;;5012136;28;20455;-66
2021/06/26 11:18:58;;;;;;;6.53;2.47;;;;;;;;;;5013324;28;20026;-67
2021/06/26 11:21:24;;;;;;;4.82;2.78;;;;;;;;;;5013411;28;20021;-65
2021/06/26 11:23:51;;;;;;;4.47;2.33;;;;;;;;;;5013127;28;20026;-66
2021/06/26 11:26:18;;;;;;;9.77;2.70;;;;;;;;;;5011761;28;20018;-64
2021/06/26 11:28:44;;;;;;;4.53;2.65;;;;;;;;;;5011997;28;20429;-66
2021/06/26 11:31:12;;;;;;;11.55;2.83;;;;;;;;;;5013063;28;20061;-65
2021/06/26 11:33:40;;;;;;;4.45;2.35;;;;;;;;;;5012867;28;20153;-67
2021/06/26 11:36:16;;;;;;;5.65;2.80;;;;;;;;;;5012799;28;20121;-63
2021/06/26 11:38:43;;;;;;;5.15;2.03;;;;;;;;;;5013262;28;20026;-66
2021/06/26 11:41:10;;;;;;;9.48;2.10;;;;;;;;;;5013236;28;20017;-65
2021/06/26 11:43:37;;;;;;;4.85;2.30;;;;;;;;;;5011524;28;20112;-67
2021/06/26 11:46:06;;;;;;;6.03;1.98;;;;;;;;;;5013178;28;20030;-64
2021/06/26 11:48:33;;;;;;;5.22;2.17;;;;;;;;;;5012639;28;20049;-68
2021/06/26 11:51:07;;;;;;;3.72;1.80;;;;;;;;;;5013291;28;20026;-67
2021/06/26 11:53:45;;;;;;;3.28;1.83;;;;;;;;;;5012710;28;20030;-66
2021/06/26 11:56:16;;;;;;;5.10;1.60;;;;;;;;;;5013238;28;20053;-64
2021/06/26 11:59:07;;;;;;;4.90;1.80;;;;;;;;;;5032784;28;20075;-67
2021/06/26 12:01:38;;;;;;;3.70;2.03;;;;;;;;;;4952249;29;20113;-69
2021/06/26 12:04:17;;;;;;;3.60;2.03;;;;;;;;;;4952289;29;20071;-67
2021/06/26 12:06:44;;;;;;;4.65;2.22;;;;;;;;;;4923478;29;20064;-64
2021/06/26 12:09:15;;;;;;;4.65;1.73;;;;;;;;;;4913740;29;20590;-68
2021/06/26 12:11:42;;;;;;;6.57;2.47;;;;;;;;;;4914478;29;20048;-65
2021/06/26 12:14:11;;;;;;;6.05;1.70;;;;;;;;;;4913799;29;20039;-65
2021/06/26 12:16:43;;;;;;;8.60;1.92;;;;;;;;;;4921306;29;20027;-66
2021/06/26 12:19:13;;;;;;;5.60;2.00;;;;;;;;;;4932115;29;20032;-67
2021/06/26 12:21:44;;;;;;;3.97;2.17;;;;;;;;;;4916764;29;20026;-64
2021/06/26 12:24:11;;;;;;;2.95;1.35;;;;;;;;;;4918138;29;20511;-65
2021/06/26 12:26:37;;;;;;;2.15;1.52;;;;;;;;;;4920933;29;20123;-67
2021/06/26 12:29:03;;;;;;;4.90;1.70;;;;;;;;;;4936974;29;20055;-66
2021/06/26 12:31:29;;;;;;;6.65;1.73;;;;;;;;;;4936773;29;20047;-66
2021/06/26 12:34:00;;;;;;;5.68;1.80;;;;;;;;;;4936885;29;20102;-67
2021/06/26 12:36:26;;;;;;;4.57;2.08;;;;;;;;;;4936684;29;20509;-66
2021/06/26 12:38:53;;;;;;;5.80;2.10;;;;;;;;;;4988208;28;20038;-67
2021/06/26 12:41:19;;;;;;;19.25;2.13;;;;;;;;;;5016642;28;20018;-68
2021/06/26 12:43:45;;;;;;;4.07;1.67;;;;;;;;;;5015850;28;20017;-68
2021/06/26 12:46:11;;;;;;;4.03;1.67;;;;;;;;;;5016395;28;20045;-69
2021/06/26 12:48:42;;;;;;;4.90;2.00;;;;;;;;;;5014642;28;20029;-68
2021/06/26 12:51:16;;;;;;;3.83;1.92;;;;;;;;;;5015201;28;20438;-68
2021/06/26 12:53:44;;;;;;;3.72;1.90;;;;;;;;;;5016482;28;20156;-68
2021/06/26 12:56:23;;;;;;;7.80;2.17;;;;;;;;;;5016389;28;20022;-70
2021/06/26 12:58:52;;;;;;;3.95;1.60;;;;;;;;;;5015049;28;20041;-68
2021/06/26 13:01:19;;;;;;;9.20;2.80;;;;;;;;;;5016236;28;20021;-69
2021/06/26 13:03:57;;;;;;;3.20;2.33;;;;;;;;;;5016253;28;20029;-68
2021/06/26 13:06:23;;;;;;;2.72;1.80;;;;;;;;;;5016182;28;20105;-67
2021/06/26 13:08:54;;;;;;;5.78;2.10;;;;;;;;;;5014780;28;20026;-67
2021/06/26 13:11:29;;;;;;;7.22;1.80;;;;;;;;;;5016090;28;20049;-68
2021/06/26 13:13:55;;;;;;;3.78;1.70;;;;;;;;;;5016104;28;20061;-70
2021/06/26 13:16:21;;;;;;;7.15;2.45;;;;;;;;;;5015954;28;20106;-67
2021/06/26 13:18:47;;;;;;;3.05;1.90;;;;;;;;;;5015948;28;20109;-71
2021/06/26 13:21:14;;;;;;;3.65;1.95;;;;;;;;;;5015578;28;20464;-69
2021/06/26 13:23:41;;;;;;;2.55;1.73;;;;;;;;;;5014499;28;20417;-70
2021/06/26 13:26:07;;;;;;;4.63;1.80;;;41.00;76.90;;;;;;5014515;28;20028;-69
2021/06/26 13:28:33;;;;;;;8.57;2.10;;;;;;;;;;5015548;28;20113;-69
2021/06/26 13:30:59;;;;;;;4.65;2.17;;;;;;;;;;5015695;28;20096;-67
2021/06/26 13:33:25;;;;;;;2.58;2.05;;;38.90;49.00;;;;;;5014368;28;20030;-68
2021/06/26 13:35:52;;;;;;;2.40;1.60;;;;;;;;;;5015591;28;20097;-68
2021/06/26 13:38:18;;;;;;;5.90;2.03;;;;;;;;;;5015375;28;20061;-66
2021/06/26 13:40:50;;;;;;;1.85;1.75;;;;;;;;;;5014283;28;20474;-69
2021/06/26 13:43:16;;;;;;;7.60;2.47;;;;;;;;;;5015538;28;20030;-70
2021/06/26 13:45:43;;;;;;;2.08;1.83;;;;;;;;;;5015470;28;20036;-68
2021/06/26 13:48:09;;;;;;;2.30;1.80;;;;;;;;;;5015363;28;20018;-69
2021/06/26 13:50:36;;;;;;;3.33;1.95;;;;;;;;;;5015322;28;20101;-69
2021/06/26 13:53:02;;;;;;;2.63;2.00;;;;;;;;;;5015284;28;20034;-68
2021/06/26 13:55:28;;;;;;;3.08;2.00;;;;;;;;;;5013942;28;20034;-69
2021/06/26 13:57:54;;;;;;;6.03;2.20;;;;;;;;;;5015671;28;20512;-69
2021/06/26 14:00:32;;;;;;;4.95;2.33;;;;;;;;;;5024622;28;20093;-68
2021/06/26 14:03:01;;;;;;;2.13;1.80;;;42.00;87.00;;;;;;5021541;28;20018;-68
2021/06/26 14:05:28;;;;;;;4.43;2.45;;;;;;;;;;5021300;28;20028;-68
2021/06/26 14:07:54;;;;;;;14.88;2.80;;;;;;;;;;5022292;28;20025;-69
2021/06/26 14:10:21;;;;;;;4.70;1.80;;;43.50;44.20;;;;;;5012959;28;20040;-70
2021/06/26 14:12:47;;;;;;;4.55;2.45;;;43.40;44.00;;;;;;5024884;28;20036;-65
2021/06/26 14:15:13;;;;;;;4.32;2.25;;;42.40;44.50;;;;;;5023256;28;20030;-65
2021/06/26 14:17:39;;;;;;;8.52;2.40;;;43.20;45.10;;;;;;5025173;28;20074;-66
2021/06/26 14:20:06;;;;;;;7.68;1.83;;;43.20;44.90;;;;;;5024465;28;20037;-69
2021/06/26 14:22:32;;;;;;;6.45;2.30;;;41.90;43.20;;;;;;5034361;28;20072;-66
2021/06/26 14:24:57;;;;;;;2.75;2.00;;;41.90;44.20;;;;;;5033221;28;20026;-66
2021/06/26 14:27:23;;;;;;;2.53;1.60;;;41.90;43.00;;;;;;5034450;28;20029;-66
2021/06/26 14:29:49;;;;;;;3.97;1.85;;;;;;;;;;5034120;28;20036;-65
2021/06/26 14:32:15;;;;;;;3.58;1.70;;;;;;;;;;5033973;28;20389;-66
2021/06/26 14:34:41;;;;;;;1.88;1.55;;;42.00;43.50;;;;;;5034254;28;20049;-68